sensor_id;sensor_type;location;lat;lon;timestamp;P1;durP1;ratioP1;P2;durP2;ratioP2
10991;SDS011;5549;47.028;15.514;2022-08-16T00:00:49;2.20;;;2.10;;
10991;SDS011;5549;47.028;15.514;2022-08-16T00:03:19;2.00;;;1.90;;
10991;SDS011;5549;47.028;15.514;2022-08-16T00:05:48;2.23;;;2.13;;
10991;SDS011;5549;47.028;15.514;2022-08-16T00:08:18;2.27;;;2.17;;
10991;SDS011;5549;47.028;15.514;2022-08-16T00:10:48;2.30;;;2.20;;
10991;SDS011;5549;47.028;15.514;2022-08-16T00:13:20;1.83;;;1.73;;
10991;SDS011;5549;47.028;15.514;2022-08-16T00:15:48;2.10;;;2.00;;
10991;SDS011;5549;47.028;15.514;2022-08-16T00:18:18;2.30;;;2.07;;
10991;SDS011;5549;47.028;15.514;2022-08-16T00:20:48;2.23;;;2.13;;
10991;SDS011;5549;47.028;15.514;2022-08-16T00:23:17;2.50;;;2.30;;
10991;SDS011;5549;47.028;15.514;2022-08-16T00:25:47;2.40;;;2.30;;
10991;SDS011;5549;47.028;15.514;2022-08-16T00:28:17;2.47;;;2.37;;
10991;SDS011;5549;47.028;15.514;2022-08-16T00:30:49;2.20;;;2.10;;
10991;SDS011;5549;47.028;15.514;2022-08-16T00:33:19;2.17;;;2.07;;
10991;SDS011;5549;47.028;15.514;2022-08-16T00:35:47;2.40;;;2.23;;
10991;SDS011;5549;47.028;15.514;2022-08-16T00:38:15;2.37;;;2.23;;
10991;SDS011;5549;47.028;15.514;2022-08-16T00:40:47;2.20;;;2.10;;
10991;SDS011;5549;47.028;15.514;2022-08-16T00:43:22;2.67;;;2.33;;
10991;SDS011;5549;47.028;15.514;2022-08-16T00:45:56;2.30;;;2.20;;
10991;SDS011;5549;47.028;15.514;2022-08-16T00:48:31;2.40;;;2.30;;
10991;SDS011;5549;47.028;15.514;2022-08-16T00:51:02;2.53;;;2.33;;
10991;SDS011;5549;47.028;15.514;2022-08-16T00:53:32;2.33;;;2.03;;
10991;SDS011;5549;47.028;15.514;2022-08-16T00:56:01;3.47;;;2.30;;
10991;SDS011;5549;47.028;15.514;2022-08-16T00:58:35;2.57;;;2.47;;
10991;SDS011;5549;47.028;15.514;2022-08-16T01:01:10;2.20;;;2.10;;
10991;SDS011;5549;47.028;15.514;2022-08-16T01:03:42;3.30;;;2.57;;
10991;SDS011;5549;47.028;15.514;2022-08-16T01:06:15;2.40;;;2.20;;
10991;SDS011;5549;47.028;15.514;2022-08-16T01:08:45;3.00;;;2.73;;
10991;SDS011;5549;47.028;15.514;2022-08-16T01:11:17;2.20;;;2.10;;
10991;SDS011;5549;47.028;15.514;2022-08-16T01:13:47;2.30;;;2.20;;
10991;SDS011;5549;47.028;15.514;2022-08-16T01:16:22;2.43;;;2.23;;
10991;SDS011;5549;47.028;15.514;2022-08-16T01:18:54;2.57;;;2.40;;
10991;SDS011;5549;47.028;15.514;2022-08-16T01:21:31;2.90;;;2.50;;
10991;SDS011;5549;47.028;15.514;2022-08-16T01:24:20;4.20;;;2.33;;
10991;SDS011;5549;47.028;15.514;2022-08-16T01:26:58;2.30;;;2.17;;
10991;SDS011;5549;47.028;15.514;2022-08-16T01:29:38;2.17;;;2.07;;
10991;SDS011;5549;47.028;15.514;2022-08-16T01:32:14;2.53;;;2.33;;
10991;SDS011;5549;47.028;15.514;2022-08-16T01:34:42;2.30;;;2.20;;
10991;SDS011;5549;47.028;15.514;2022-08-16T01:37:13;2.73;;;2.10;;
10991;SDS011;5549;47.028;15.514;2022-08-16T01:39:44;2.23;;;2.13;;
10991;SDS011;5549;47.028;15.514;2022-08-16T01:42:12;2.30;;;2.20;;
10991;SDS011;5549;47.028;15.514;2022-08-16T01:44:42;2.60;;;2.10;;
10991;SDS011;5549;47.028;15.514;2022-08-16T01:47:10;2.50;;;2.30;;
10991;SDS011;5549;47.028;15.514;2022-08-16T01:49:40;2.20;;;2.10;;
10991;SDS011;5549;47.028;15.514;2022-08-16T01:52:11;2.27;;;2.07;;
10991;SDS011;5549;47.028;15.514;2022-08-16T01:54:42;2.20;;;2.10;;
10991;SDS011;5549;47.028;15.514;2022-08-16T01:57:11;2.13;;;2.03;;
10991;SDS011;5549;47.028;15.514;2022-08-16T01:59:41;2.10;;;1.90;;
10991;SDS011;5549;47.028;15.514;2022-08-16T02:02:09;2.30;;;2.10;;
10991;SDS011;5549;47.028;15.514;2022-08-16T02:04:37;2.47;;;2.37;;
10991;SDS011;5549;47.028;15.514;2022-08-16T02:07:05;1.77;;;1.63;;
10991;SDS011;5549;47.028;15.514;2022-08-16T02:09:36;1.90;;;1.80;;
10991;SDS011;5549;47.028;15.514;2022-08-16T02:12:06;1.70;;;1.70;;
10991;SDS011;5549;47.028;15.514;2022-08-16T02:14:35;2.40;;;2.20;;
10991;SDS011;5549;47.028;15.514;2022-08-16T02:17:07;4.27;;;2.00;;
10991;SDS011;5549;47.028;15.514;2022-08-16T02:19:40;1.67;;;1.67;;
10991;SDS011;5549;47.028;15.514;2022-08-16T02:22:14;2.00;;;1.90;;
10991;SDS011;5549;47.028;15.514;2022-08-16T02:24:47;1.70;;;1.70;;
10991;SDS011;5549;47.028;15.514;2022-08-16T02:27:20;2.13;;;2.03;;
10991;SDS011;5549;47.028;15.514;2022-08-16T02:29:48;1.93;;;1.90;;
10991;SDS011;5549;47.028;15.514;2022-08-16T02:32:15;1.90;;;1.80;;
10991;SDS011;5549;47.028;15.514;2022-08-16T02:34:44;1.93;;;1.90;;
10991;SDS011;5549;47.028;15.514;2022-08-16T02:37:14;2.07;;;2.00;;
10991;SDS011;5549;47.028;15.514;2022-08-16T02:39:47;2.10;;;2.00;;
10991;SDS011;5549;47.028;15.514;2022-08-16T02:42:15;2.20;;;2.00;;
10991;SDS011;5549;47.028;15.514;2022-08-16T02:44:46;2.40;;;2.30;;
10991;SDS011;5549;47.028;15.514;2022-08-16T02:47:15;2.07;;;2.00;;
10991;SDS011;5549;47.028;15.514;2022-08-16T02:49:43;2.67;;;2.40;;
10991;SDS011;5549;47.028;15.514;2022-08-16T02:52:14;2.03;;;1.93;;
10991;SDS011;5549;47.028;15.514;2022-08-16T02:54:42;2.03;;;1.93;;
10991;SDS011;5549;47.028;15.514;2022-08-16T02:57:12;2.03;;;1.93;;
10991;SDS011;5549;47.028;15.514;2022-08-16T02:59:42;2.17;;;1.73;;
10991;SDS011;5549;47.028;15.514;2022-08-16T03:02:13;2.20;;;2.10;;
10991;SDS011;5549;47.028;15.514;2022-08-16T03:04:43;2.13;;;2.03;;
10991;SDS011;5549;47.028;15.514;2022-08-16T03:07:11;2.30;;;2.20;;
10991;SDS011;5549;47.028;15.514;2022-08-16T03:09:40;4.57;;;2.00;;
10991;SDS011;5549;47.028;15.514;2022-08-16T03:12:07;2.33;;;2.23;;
10991;SDS011;5549;47.028;15.514;2022-08-16T03:14:37;1.80;;;1.70;;
10991;SDS011;5549;47.028;15.514;2022-08-16T03:17:07;2.00;;;1.90;;
10991;SDS011;5549;47.028;15.514;2022-08-16T03:19:37;2.33;;;2.20;;
10991;SDS011;5549;47.028;15.514;2022-08-16T03:22:06;1.87;;;1.80;;
10991;SDS011;5549;47.028;15.514;2022-08-16T03:24:34;1.73;;;1.73;;
10991;SDS011;5549;47.028;15.514;2022-08-16T03:27:02;1.90;;;1.80;;
10991;SDS011;5549;47.028;15.514;2022-08-16T03:29:33;2.00;;;1.90;;
10991;SDS011;5549;47.028;15.514;2022-08-16T03:32:01;1.90;;;1.90;;
10991;SDS011;5549;47.028;15.514;2022-08-16T03:34:31;2.00;;;1.90;;
10991;SDS011;5549;47.028;15.514;2022-08-16T03:37:03;2.47;;;2.27;;
10991;SDS011;5549;47.028;15.514;2022-08-16T03:39:31;2.30;;;2.20;;
10991;SDS011;5549;47.028;15.514;2022-08-16T03:42:00;2.17;;;2.07;;
10991;SDS011;5549;47.028;15.514;2022-08-16T03:44:29;1.90;;;1.83;;
10991;SDS011;5549;47.028;15.514;2022-08-16T03:46:57;2.20;;;2.10;;
10991;SDS011;5549;47.028;15.514;2022-08-16T03:49:25;2.30;;;2.00;;
10991;SDS011;5549;47.028;15.514;2022-08-16T03:51:53;2.00;;;1.90;;
10991;SDS011;5549;47.028;15.514;2022-08-16T03:54:25;2.27;;;2.17;;
10991;SDS011;5549;47.028;15.514;2022-08-16T03:56:53;2.37;;;2.17;;
10991;SDS011;5549;47.028;15.514;2022-08-16T03:59:23;1.90;;;1.80;;
10991;SDS011;5549;47.028;15.514;2022-08-16T04:01:51;1.70;;;1.70;;
10991;SDS011;5549;47.028;15.514;2022-08-16T04:04:20;2.07;;;1.97;;
10991;SDS011;5549;47.028;15.514;2022-08-16T04:06:50;2.27;;;2.17;;
10991;SDS011;5549;47.028;15.514;2022-08-16T04:09:18;2.17;;;2.07;;
10991;SDS011;5549;47.028;15.514;2022-08-16T04:11:49;2.10;;;2.00;;
10991;SDS011;5549;47.028;15.514;2022-08-16T04:14:17;2.13;;;2.03;;
10991;SDS011;5549;47.028;15.514;2022-08-16T04:16:44;2.10;;;2.00;;
10991;SDS011;5549;47.028;15.514;2022-08-16T04:19:14;2.10;;;2.00;;
10991;SDS011;5549;47.028;15.514;2022-08-16T04:21:44;2.13;;;1.90;;
10991;SDS011;5549;47.028;15.514;2022-08-16T04:24:12;1.67;;;1.67;;
10991;SDS011;5549;47.028;15.514;2022-08-16T04:26:40;2.10;;;2.00;;
10991;SDS011;5549;47.028;15.514;2022-08-16T04:29:12;2.13;;;2.03;;
10991;SDS011;5549;47.028;15.514;2022-08-16T04:31:42;1.90;;;1.80;;
10991;SDS011;5549;47.028;15.514;2022-08-16T04:34:12;1.77;;;1.77;;
10991;SDS011;5549;47.028;15.514;2022-08-16T04:36:40;2.30;;;2.17;;
10991;SDS011;5549;47.028;15.514;2022-08-16T04:39:08;2.03;;;1.93;;
10991;SDS011;5549;47.028;15.514;2022-08-16T04:41:38;2.20;;;2.10;;
10991;SDS011;5549;47.028;15.514;2022-08-16T04:44:08;2.13;;;2.00;;
10991;SDS011;5549;47.028;15.514;2022-08-16T04:46:41;2.00;;;1.90;;
10991;SDS011;5549;47.028;15.514;2022-08-16T04:49:12;2.00;;;1.90;;
10991;SDS011;5549;47.028;15.514;2022-08-16T04:51:43;2.20;;;2.00;;
10991;SDS011;5549;47.028;15.514;2022-08-16T04:54:10;2.10;;;2.00;;
10991;SDS011;5549;47.028;15.514;2022-08-16T04:56:39;2.17;;;2.07;;
10991;SDS011;5549;47.028;15.514;2022-08-16T04:59:07;2.17;;;2.07;;
10991;SDS011;5549;47.028;15.514;2022-08-16T05:01:35;2.23;;;2.13;;
10991;SDS011;5549;47.028;15.514;2022-08-16T05:04:07;2.20;;;2.10;;
10991;SDS011;5549;47.028;15.514;2022-08-16T05:06:34;1.90;;;1.90;;
10991;SDS011;5549;47.028;15.514;2022-08-16T05:09:02;2.20;;;2.10;;
10991;SDS011;5549;47.028;15.514;2022-08-16T05:11:33;1.93;;;1.83;;
10991;SDS011;5549;47.028;15.514;2022-08-16T05:14:01;1.93;;;1.83;;
10991;SDS011;5549;47.028;15.514;2022-08-16T05:16:31;2.20;;;2.10;;
10991;SDS011;5549;47.028;15.514;2022-08-16T05:18:59;1.93;;;1.83;;
10991;SDS011;5549;47.028;15.514;2022-08-16T05:21:33;1.70;;;1.70;;
10991;SDS011;5549;47.028;15.514;2022-08-16T05:24:05;2.03;;;1.90;;
10991;SDS011;5549;47.028;15.514;2022-08-16T05:26:34;2.00;;;2.00;;
10991;SDS011;5549;47.028;15.514;2022-08-16T05:29:03;2.17;;;2.07;;
10991;SDS011;5549;47.028;15.514;2022-08-16T05:31:32;2.10;;;2.00;;
10991;SDS011;5549;47.028;15.514;2022-08-16T05:34:02;2.07;;;2.07;;
10991;SDS011;5549;47.028;15.514;2022-08-16T05:36:34;1.90;;;1.90;;
10991;SDS011;5549;47.028;15.514;2022-08-16T05:39:04;1.83;;;1.80;;
10991;SDS011;5549;47.028;15.514;2022-08-16T05:41:33;1.97;;;1.87;;
10991;SDS011;5549;47.028;15.514;2022-08-16T05:44:02;1.37;;;1.37;;
10991;SDS011;5549;47.028;15.514;2022-08-16T05:46:32;1.70;;;1.60;;
10991;SDS011;5549;47.028;15.514;2022-08-16T05:49:00;2.07;;;1.90;;
10991;SDS011;5549;47.028;15.514;2022-08-16T05:51:31;1.67;;;1.67;;
10991;SDS011;5549;47.028;15.514;2022-08-16T05:54:02;1.63;;;1.63;;
10991;SDS011;5549;47.028;15.514;2022-08-16T05:56:31;1.50;;;1.50;;
10991;SDS011;5549;47.028;15.514;2022-08-16T05:59:01;2.73;;;2.60;;
10991;SDS011;5549;47.028;15.514;2022-08-16T06:01:30;2.10;;;2.00;;
10991;SDS011;5549;47.028;15.514;2022-08-16T06:03:58;2.00;;;1.90;;
10991;SDS011;5549;47.028;15.514;2022-08-16T06:06:26;1.60;;;1.60;;
10991;SDS011;5549;47.028;15.514;2022-08-16T06:08:55;2.23;;;2.13;;
10991;SDS011;5549;47.028;15.514;2022-08-16T06:11:43;1.80;;;1.70;;
10991;SDS011;5549;47.028;15.514;2022-08-16T06:14:13;1.53;;;1.43;;
10991;SDS011;5549;47.028;15.514;2022-08-16T06:16:43;1.77;;;1.77;;
10991;SDS011;5549;47.028;15.514;2022-08-16T06:19:14;1.60;;;1.60;;
10991;SDS011;5549;47.028;15.514;2022-08-16T06:21:41;1.87;;;1.77;;
10991;SDS011;5549;47.028;15.514;2022-08-16T06:24:11;1.90;;;1.80;;
10991;SDS011;5549;47.028;15.514;2022-08-16T06:26:43;1.70;;;1.70;;
10991;SDS011;5549;47.028;15.514;2022-08-16T06:29:11;1.70;;;1.60;;
10991;SDS011;5549;47.028;15.514;2022-08-16T06:31:39;1.53;;;1.53;;
10991;SDS011;5549;47.028;15.514;2022-08-16T06:34:07;1.67;;;1.57;;
10991;SDS011;5549;47.028;15.514;2022-08-16T06:36:34;1.77;;;1.67;;
10991;SDS011;5549;47.028;15.514;2022-08-16T06:39:02;1.60;;;1.57;;
10991;SDS011;5549;47.028;15.514;2022-08-16T06:41:30;1.60;;;1.57;;
10991;SDS011;5549;47.028;15.514;2022-08-16T06:43:59;1.80;;;1.70;;
10991;SDS011;5549;47.028;15.514;2022-08-16T06:46:30;1.70;;;1.60;;
10991;SDS011;5549;47.028;15.514;2022-08-16T06:49:04;2.20;;;1.40;;
10991;SDS011;5549;47.028;15.514;2022-08-16T06:51:34;2.20;;;1.67;;
10991;SDS011;5549;47.028;15.514;2022-08-16T06:54:02;1.60;;;1.50;;
10991;SDS011;5549;47.028;15.514;2022-08-16T06:56:33;1.40;;;1.40;;
10991;SDS011;5549;47.028;15.514;2022-08-16T06:59:05;1.53;;;1.53;;
10991;SDS011;5549;47.028;15.514;2022-08-16T07:01:32;1.80;;;1.70;;
10991;SDS011;5549;47.028;15.514;2022-08-16T07:04:03;1.57;;;1.57;;
10991;SDS011;5549;47.028;15.514;2022-08-16T07:06:31;1.40;;;1.40;;
10991;SDS011;5549;47.028;15.514;2022-08-16T07:08:59;1.90;;;1.80;;
10991;SDS011;5549;47.028;15.514;2022-08-16T07:11:27;2.10;;;1.60;;
10991;SDS011;5549;47.028;15.514;2022-08-16T07:13:57;1.30;;;1.30;;
10991;SDS011;5549;47.028;15.514;2022-08-16T07:16:29;1.43;;;1.43;;
10991;SDS011;5549;47.028;15.514;2022-08-16T07:18:59;1.40;;;1.40;;
10991;SDS011;5549;47.028;15.514;2022-08-16T07:21:26;1.40;;;1.40;;
10991;SDS011;5549;47.028;15.514;2022-08-16T07:23:54;1.67;;;1.67;;
10991;SDS011;5549;47.028;15.514;2022-08-16T07:26:23;1.40;;;1.40;;
10991;SDS011;5549;47.028;15.514;2022-08-16T07:28:53;2.00;;;1.80;;
10991;SDS011;5549;47.028;15.514;2022-08-16T07:31:21;1.30;;;1.30;;
10991;SDS011;5549;47.028;15.514;2022-08-16T07:33:50;1.80;;;1.70;;
10991;SDS011;5549;47.028;15.514;2022-08-16T07:36:17;1.90;;;1.80;;
10991;SDS011;5549;47.028;15.514;2022-08-16T07:38:48;1.50;;;1.50;;
10991;SDS011;5549;47.028;15.514;2022-08-16T07:41:17;1.60;;;1.50;;
10991;SDS011;5549;47.028;15.514;2022-08-16T07:43:47;1.60;;;1.60;;
10991;SDS011;5549;47.028;15.514;2022-08-16T07:46:15;1.60;;;1.60;;
10991;SDS011;5549;47.028;15.514;2022-08-16T07:48:42;2.10;;;1.90;;
10991;SDS011;5549;47.028;15.514;2022-08-16T07:51:13;1.23;;;1.23;;
10991;SDS011;5549;47.028;15.514;2022-08-16T07:53:43;1.57;;;1.57;;
10991;SDS011;5549;47.028;15.514;2022-08-16T07:56:15;1.50;;;1.50;;
10991;SDS011;5549;47.028;15.514;2022-08-16T07:58:45;1.50;;;1.50;;
10991;SDS011;5549;47.028;15.514;2022-08-16T08:01:15;1.57;;;1.33;;
10991;SDS011;5549;47.028;15.514;2022-08-16T08:03:45;2.07;;;1.40;;
10991;SDS011;5549;47.028;15.514;2022-08-16T08:06:16;1.67;;;1.57;;
10991;SDS011;5549;47.028;15.514;2022-08-16T08:08:46;1.40;;;1.40;;
10991;SDS011;5549;47.028;15.514;2022-08-16T08:11:17;2.10;;;1.90;;
10991;SDS011;5549;47.028;15.514;2022-08-16T08:13:46;1.77;;;1.73;;
10991;SDS011;5549;47.028;15.514;2022-08-16T08:16:14;1.47;;;1.47;;
10991;SDS011;5549;47.028;15.514;2022-08-16T08:18:42;1.60;;;1.60;;
10991;SDS011;5549;47.028;15.514;2022-08-16T08:21:12;1.77;;;1.67;;
10991;SDS011;5549;47.028;15.514;2022-08-16T08:23:43;1.80;;;1.70;;
10991;SDS011;5549;47.028;15.514;2022-08-16T08:26:11;1.33;;;1.33;;
10991;SDS011;5549;47.028;15.514;2022-08-16T08:28:40;1.83;;;1.73;;
10991;SDS011;5549;47.028;15.514;2022-08-16T08:31:10;1.70;;;1.60;;
10991;SDS011;5549;47.028;15.514;2022-08-16T08:33:38;3.13;;;1.80;;
10991;SDS011;5549;47.028;15.514;2022-08-16T08:36:08;1.70;;;1.70;;
10991;SDS011;5549;47.028;15.514;2022-08-16T08:38:40;1.50;;;1.50;;
10991;SDS011;5549;47.028;15.514;2022-08-16T08:41:12;1.80;;;1.57;;
10991;SDS011;5549;47.028;15.514;2022-08-16T08:43:42;1.50;;;1.40;;
10991;SDS011;5549;47.028;15.514;2022-08-16T08:46:10;1.70;;;1.60;;
10991;SDS011;5549;47.028;15.514;2022-08-16T08:48:40;1.77;;;1.67;;
10991;SDS011;5549;47.028;15.514;2022-08-16T08:51:10;2.00;;;1.90;;
10991;SDS011;5549;47.028;15.514;2022-08-16T08:53:38;1.80;;;1.80;;
10991;SDS011;5549;47.028;15.514;2022-08-16T08:56:06;2.07;;;1.97;;
10991;SDS011;5549;47.028;15.514;2022-08-16T08:58:38;1.90;;;1.80;;
10991;SDS011;5549;47.028;15.514;2022-08-16T09:01:09;1.83;;;1.80;;
10991;SDS011;5549;47.028;15.514;2022-08-16T09:03:39;1.97;;;1.90;;
10991;SDS011;5549;47.028;15.514;2022-08-16T09:06:07;2.10;;;2.00;;
10991;SDS011;5549;47.028;15.514;2022-08-16T09:08:37;2.13;;;2.03;;
10991;SDS011;5549;47.028;15.514;2022-08-16T09:11:08;2.60;;;2.13;;
10991;SDS011;5549;47.028;15.514;2022-08-16T09:13:36;1.90;;;1.83;;
10991;SDS011;5549;47.028;15.514;2022-08-16T09:16:07;2.13;;;2.03;;
10991;SDS011;5549;47.028;15.514;2022-08-16T09:18:35;2.33;;;2.23;;
10991;SDS011;5549;47.028;15.514;2022-08-16T09:21:03;2.00;;;1.90;;
10991;SDS011;5549;47.028;15.514;2022-08-16T09:23:33;2.07;;;2.00;;
10991;SDS011;5549;47.028;15.514;2022-08-16T09:26:05;2.50;;;2.30;;
10991;SDS011;5549;47.028;15.514;2022-08-16T09:28:38;2.20;;;2.10;;
10991;SDS011;5549;47.028;15.514;2022-08-16T09:31:08;2.00;;;2.00;;
10991;SDS011;5549;47.028;15.514;2022-08-16T09:33:39;2.20;;;2.10;;
10991;SDS011;5549;47.028;15.514;2022-08-16T09:36:10;1.90;;;1.80;;
10991;SDS011;5549;47.028;15.514;2022-08-16T09:38:38;1.87;;;1.77;;
10991;SDS011;5549;47.028;15.514;2022-08-16T09:41:07;2.43;;;2.33;;
10991;SDS011;5549;47.028;15.514;2022-08-16T09:43:37;2.43;;;2.23;;
10991;SDS011;5549;47.028;15.514;2022-08-16T09:46:06;2.40;;;2.30;;
10991;SDS011;5549;47.028;15.514;2022-08-16T09:48:36;2.10;;;1.90;;
10991;SDS011;5549;47.028;15.514;2022-08-16T09:51:06;1.80;;;1.80;;
10991;SDS011;5549;47.028;15.514;2022-08-16T09:53:35;2.07;;;1.97;;
10991;SDS011;5549;47.028;15.514;2022-08-16T09:56:07;3.00;;;2.03;;
10991;SDS011;5549;47.028;15.514;2022-08-16T09:58:45;2.23;;;2.07;;
10991;SDS011;5549;47.028;15.514;2022-08-16T10:01:13;2.07;;;1.97;;
10991;SDS011;5549;47.028;15.514;2022-08-16T10:03:41;2.00;;;2.00;;
10991;SDS011;5549;47.028;15.514;2022-08-16T10:06:08;1.90;;;1.90;;
10991;SDS011;5549;47.028;15.514;2022-08-16T10:08:38;2.17;;;2.07;;
10991;SDS011;5549;47.028;15.514;2022-08-16T10:11:06;2.40;;;2.30;;
10991;SDS011;5549;47.028;15.514;2022-08-16T10:13:52;2.23;;;2.13;;
10991;SDS011;5549;47.028;15.514;2022-08-16T10:16:20;2.23;;;2.13;;
10991;SDS011;5549;47.028;15.514;2022-08-16T10:18:48;3.07;;;2.87;;
10991;SDS011;5549;47.028;15.514;2022-08-16T10:21:18;2.53;;;2.40;;
10991;SDS011;5549;47.028;15.514;2022-08-16T10:23:46;2.07;;;1.90;;
10991;SDS011;5549;47.028;15.514;2022-08-16T10:26:19;2.20;;;2.13;;
10991;SDS011;5549;47.028;15.514;2022-08-16T10:28:48;2.20;;;2.10;;
10991;SDS011;5549;47.028;15.514;2022-08-16T10:31:20;2.40;;;2.20;;
10991;SDS011;5549;47.028;15.514;2022-08-16T10:33:50;2.50;;;2.40;;
10991;SDS011;5549;47.028;15.514;2022-08-16T10:36:21;2.33;;;2.23;;
10991;SDS011;5549;47.028;15.514;2022-08-16T10:38:49;2.77;;;2.67;;
10991;SDS011;5549;47.028;15.514;2022-08-16T10:41:19;2.20;;;2.10;;
10991;SDS011;5549;47.028;15.514;2022-08-16T10:43:48;2.50;;;2.30;;
10991;SDS011;5549;47.028;15.514;2022-08-16T10:46:17;2.60;;;2.50;;
10991;SDS011;5549;47.028;15.514;2022-08-16T10:48:48;2.57;;;2.47;;
10991;SDS011;5549;47.028;15.514;2022-08-16T10:51:16;3.00;;;2.70;;
10991;SDS011;5549;47.028;15.514;2022-08-16T10:53:44;2.40;;;2.30;;
10991;SDS011;5549;47.028;15.514;2022-08-16T10:56:14;2.90;;;2.70;;
10991;SDS011;5549;47.028;15.514;2022-08-16T10:58:44;2.47;;;2.37;;
10991;SDS011;5549;47.028;15.514;2022-08-16T11:01:12;2.53;;;2.43;;
10991;SDS011;5549;47.028;15.514;2022-08-16T11:03:43;2.10;;;2.00;;
10991;SDS011;5549;47.028;15.514;2022-08-16T11:06:14;2.40;;;2.30;;
10991;SDS011;5549;47.028;15.514;2022-08-16T11:08:44;2.30;;;2.20;;
10991;SDS011;5549;47.028;15.514;2022-08-16T11:11:15;2.77;;;2.60;;
10991;SDS011;5549;47.028;15.514;2022-08-16T11:13:44;2.37;;;2.27;;
10991;SDS011;5549;47.028;15.514;2022-08-16T11:16:14;2.27;;;2.17;;
10991;SDS011;5549;47.028;15.514;2022-08-16T11:18:41;2.13;;;2.03;;
10991;SDS011;5549;47.028;15.514;2022-08-16T11:21:09;2.60;;;2.50;;
10991;SDS011;5549;47.028;15.514;2022-08-16T11:23:39;2.40;;;2.30;;
10991;SDS011;5549;47.028;15.514;2022-08-16T11:26:07;2.60;;;2.50;;
10991;SDS011;5549;47.028;15.514;2022-08-16T11:28:35;2.60;;;2.50;;
10991;SDS011;5549;47.028;15.514;2022-08-16T11:31:05;2.77;;;2.57;;
10991;SDS011;5549;47.028;15.514;2022-08-16T11:33:33;2.50;;;2.40;;
10991;SDS011;5549;47.028;15.514;2022-08-16T11:36:03;2.93;;;2.80;;
10991;SDS011;5549;47.028;15.514;2022-08-16T11:38:33;2.53;;;2.33;;
10991;SDS011;5549;47.028;15.514;2022-08-16T11:41:06;2.40;;;2.30;;
10991;SDS011;5549;47.028;15.514;2022-08-16T11:43:36;2.67;;;2.47;;
10991;SDS011;5549;47.028;15.514;2022-08-16T11:46:07;2.60;;;2.50;;
10991;SDS011;5549;47.028;15.514;2022-08-16T11:48:44;2.83;;;2.47;;
10991;SDS011;5549;47.028;15.514;2022-08-16T11:51:16;3.10;;;2.90;;
10991;SDS011;5549;47.028;15.514;2022-08-16T11:53:44;2.73;;;2.60;;
10991;SDS011;5549;47.028;15.514;2022-08-16T11:56:13;2.70;;;2.50;;
10991;SDS011;5549;47.028;15.514;2022-08-16T11:58:40;2.80;;;2.60;;
10991;SDS011;5549;47.028;15.514;2022-08-16T12:01:09;2.53;;;2.43;;
10991;SDS011;5549;47.028;15.514;2022-08-16T12:03:40;2.73;;;2.53;;
10991;SDS011;5549;47.028;15.514;2022-08-16T12:06:11;2.60;;;2.50;;
10991;SDS011;5549;47.028;15.514;2022-08-16T12:08:44;2.93;;;2.73;;
10991;SDS011;5549;47.028;15.514;2022-08-16T12:11:14;2.73;;;2.63;;
10991;SDS011;5549;47.028;15.514;2022-08-16T12:13:42;3.00;;;2.80;;
10991;SDS011;5549;47.028;15.514;2022-08-16T12:16:13;2.80;;;2.60;;
10991;SDS011;5549;47.028;15.514;2022-08-16T12:18:43;3.00;;;2.80;;
10991;SDS011;5549;47.028;15.514;2022-08-16T12:21:11;2.83;;;2.63;;
10991;SDS011;5549;47.028;15.514;2022-08-16T12:23:41;3.10;;;2.90;;
10991;SDS011;5549;47.028;15.514;2022-08-16T12:26:09;2.50;;;2.40;;
10991;SDS011;5549;47.028;15.514;2022-08-16T12:28:38;2.63;;;2.53;;
10991;SDS011;5549;47.028;15.514;2022-08-16T12:31:05;2.80;;;2.70;;
10991;SDS011;5549;47.028;15.514;2022-08-16T12:33:33;2.63;;;2.53;;
10991;SDS011;5549;47.028;15.514;2022-08-16T12:36:03;2.77;;;2.67;;
10991;SDS011;5549;47.028;15.514;2022-08-16T12:38:35;2.70;;;2.60;;
10991;SDS011;5549;47.028;15.514;2022-08-16T12:41:05;3.07;;;2.43;;
10991;SDS011;5549;47.028;15.514;2022-08-16T12:43:35;3.03;;;2.83;;
10991;SDS011;5549;47.028;15.514;2022-08-16T12:46:06;3.10;;;3.00;;
10991;SDS011;5549;47.028;15.514;2022-08-16T12:48:39;3.13;;;2.83;;
10991;SDS011;5549;47.028;15.514;2022-08-16T12:51:27;3.20;;;2.90;;
10991;SDS011;5549;47.028;15.514;2022-08-16T12:53:59;3.10;;;2.90;;
10991;SDS011;5549;47.028;15.514;2022-08-16T12:56:32;2.37;;;2.27;;
10991;SDS011;5549;47.028;15.514;2022-08-16T12:59:08;2.47;;;2.37;;
10991;SDS011;5549;47.028;15.514;2022-08-16T13:01:39;2.70;;;2.60;;
10991;SDS011;5549;47.028;15.514;2022-08-16T13:04:13;6.37;;;2.40;;
10991;SDS011;5549;47.028;15.514;2022-08-16T13:06:41;2.60;;;2.40;;
10991;SDS011;5549;47.028;15.514;2022-08-16T13:09:12;2.80;;;2.63;;
10991;SDS011;5549;47.028;15.514;2022-08-16T13:11:54;2.57;;;2.47;;
10991;SDS011;5549;47.028;15.514;2022-08-16T13:14:34;2.50;;;2.40;;
10991;SDS011;5549;47.028;15.514;2022-08-16T13:17:09;3.13;;;2.43;;
10991;SDS011;5549;47.028;15.514;2022-08-16T13:19:41;2.50;;;2.40;;
10991;SDS011;5549;47.028;15.514;2022-08-16T13:22:11;2.50;;;2.40;;
10991;SDS011;5549;47.028;15.514;2022-08-16T13:24:40;2.33;;;2.27;;
10991;SDS011;5549;47.028;15.514;2022-08-16T13:27:10;2.60;;;2.50;;
10991;SDS011;5549;47.028;15.514;2022-08-16T13:29:39;2.47;;;2.37;;
10991;SDS011;5549;47.028;15.514;2022-08-16T13:32:06;2.53;;;2.43;;
10991;SDS011;5549;47.028;15.514;2022-08-16T13:34:37;2.43;;;2.33;;
10991;SDS011;5549;47.028;15.514;2022-08-16T13:37:04;2.37;;;2.27;;
10991;SDS011;5549;47.028;15.514;2022-08-16T13:39:34;2.67;;;2.47;;
10991;SDS011;5549;47.028;15.514;2022-08-16T13:42:02;2.60;;;2.50;;
10991;SDS011;5549;47.028;15.514;2022-08-16T13:44:37;2.50;;;2.40;;
10991;SDS011;5549;47.028;15.514;2022-08-16T13:47:06;2.93;;;2.83;;
10991;SDS011;5549;47.028;15.514;2022-08-16T13:49:34;2.70;;;2.60;;
10991;SDS011;5549;47.028;15.514;2022-08-16T13:52:01;2.83;;;2.73;;
10991;SDS011;5549;47.028;15.514;2022-08-16T13:54:30;2.57;;;2.47;;
10991;SDS011;5549;47.028;15.514;2022-08-16T13:56:58;2.83;;;2.70;;
10991;SDS011;5549;47.028;15.514;2022-08-16T13:59:28;3.27;;;2.97;;
10991;SDS011;5549;47.028;15.514;2022-08-16T14:02:00;3.07;;;2.87;;
10991;SDS011;5549;47.028;15.514;2022-08-16T14:04:33;2.90;;;2.70;;
10991;SDS011;5549;47.028;15.514;2022-08-16T14:07:04;3.00;;;2.80;;
10991;SDS011;5549;47.028;15.514;2022-08-16T14:09:36;3.10;;;2.90;;
10991;SDS011;5549;47.028;15.514;2022-08-16T14:12:05;2.80;;;2.70;;
10991;SDS011;5549;47.028;15.514;2022-08-16T14:14:43;2.70;;;2.60;;
10991;SDS011;5549;47.028;15.514;2022-08-16T14:17:13;2.53;;;2.43;;
10991;SDS011;5549;47.028;15.514;2022-08-16T14:19:43;2.90;;;2.70;;
10991;SDS011;5549;47.028;15.514;2022-08-16T14:22:15;2.90;;;2.70;;
10991;SDS011;5549;47.028;15.514;2022-08-16T14:24:45;2.93;;;2.60;;
10991;SDS011;5549;47.028;15.514;2022-08-16T14:27:15;2.37;;;2.27;;
10991;SDS011;5549;47.028;15.514;2022-08-16T14:29:50;2.50;;;2.40;;
10991;SDS011;5549;47.028;15.514;2022-08-16T14:32:21;2.47;;;2.37;;
10991;SDS011;5549;47.028;15.514;2022-08-16T14:34:54;2.87;;;2.40;;
10991;SDS011;5549;47.028;15.514;2022-08-16T14:37:25;2.93;;;2.70;;
10991;SDS011;5549;47.028;15.514;2022-08-16T14:39:55;2.60;;;2.50;;
10991;SDS011;5549;47.028;15.514;2022-08-16T14:42:23;2.97;;;2.77;;
10991;SDS011;5549;47.028;15.514;2022-08-16T14:44:52;3.10;;;2.90;;
10991;SDS011;5549;47.028;15.514;2022-08-16T14:47:21;2.73;;;2.53;;
10991;SDS011;5549;47.028;15.514;2022-08-16T14:49:49;2.83;;;2.73;;
10991;SDS011;5549;47.028;15.514;2022-08-16T14:52:19;2.13;;;2.03;;
10991;SDS011;5549;47.028;15.514;2022-08-16T14:54:49;2.50;;;2.40;;
10991;SDS011;5549;47.028;15.514;2022-08-16T14:57:17;2.27;;;2.17;;
10991;SDS011;5549;47.028;15.514;2022-08-16T14:59:45;2.30;;;2.20;;
10991;SDS011;5549;47.028;15.514;2022-08-16T15:02:14;2.97;;;2.77;;
10991;SDS011;5549;47.028;15.514;2022-08-16T15:04:47;2.50;;;2.40;;